createdAt,value
2024-01-11T00:06:42.194Z,507.00491
2024-01-11T00:21:44.353Z,153.41992
2024-01-11T00:36:46.393Z,20.37608
2024-01-11T00:51:48.423Z,1.19859
2024-01-11T01:06:50.532Z,0
2024-01-11T01:21:52.590Z,0
2024-01-11T01:36:54.668Z,0
2024-01-11T01:51:56.719Z,0
2024-01-11T02:06:58.812Z,0
2024-01-11T02:22:00.931Z,0
2024-01-11T02:37:02.916Z,0
2024-01-11T02:52:05.078Z,0
2024-01-11T03:07:07.296Z,0
2024-01-11T03:22:09.427Z,0
2024-01-11T03:37:11.512Z,0
2024-01-11T03:52:13.610Z,0
2024-01-11T04:07:15.652Z,0
2024-01-11T04:22:17.630Z,0
2024-01-11T04:37:19.648Z,0
2024-01-11T04:52:21.780Z,0
2024-01-11T05:07:23.800Z,0
2024-01-11T05:22:25.838Z,0
2024-01-11T05:37:28.033Z,0
2024-01-11T05:52:30.056Z,0
2024-01-11T06:07:32.122Z,0
2024-01-11T06:22:34.104Z,0
2024-01-11T06:37:36.906Z,0
2024-01-11T06:52:39.014Z,0
2024-01-11T07:07:41.110Z,0
2024-01-11T07:22:43.162Z,0
2024-01-11T07:37:45.273Z,0
2024-01-11T07:52:47.338Z,0
2024-01-11T08:07:49.380Z,0
2024-01-11T08:22:51.424Z,0
2024-01-11T08:53:00.776Z,0
2024-01-11T09:08:02.845Z,0
2024-01-11T09:23:05.213Z,0
2024-01-11T09:38:07.576Z,0
2024-01-11T09:53:09.690Z,0
2024-01-11T10:08:11.785Z,0
2024-01-11T10:23:13.841Z,0
2024-01-11T10:38:15.922Z,0
2024-01-11T10:53:17.991Z,0
2024-01-11T11:08:20.118Z,0
2024-01-11T11:23:22.192Z,0
2024-01-11T11:38:24.294Z,0
2024-01-11T11:53:26.500Z,0
2024-01-11T12:08:28.736Z,0
2024-01-11T12:23:31.077Z,0
2024-01-11T12:38:33.181Z,0
2024-01-11T12:53:35.370Z,0
2024-01-11T13:08:37.612Z,0
2024-01-11T13:23:39.983Z,0
2024-01-11T13:38:42.206Z,0
2024-01-11T13:53:44.333Z,0
2024-01-11T14:08:46.440Z,0
2024-01-11T14:23:48.601Z,0
2024-01-11T14:38:50.694Z,0
2024-01-11T14:53:52.893Z,0
2024-01-11T15:08:55.040Z,1.19859
2024-01-11T15:23:57.245Z,19.17749
2024-01-11T15:39:08.188Z,124.65369
2024-01-11T15:54:19.234Z,402.72729
2024-01-11T16:09:21.407Z,1127.8761
2024-01-11T16:24:23.417Z,2357.63281
2024-01-11T16:39:25.468Z,2948.53906
2024-01-11T16:54:27.482Z,3725.22754
2024-01-11T17:09:29.560Z,3881.04468
2024-01-11T17:24:31.563Z,4699.68359
2024-01-11T17:39:33.578Z,7588.29297
2024-01-11T17:54:35.650Z,8750.92871
2024-01-11T18:09:37.664Z,7521.17188
2024-01-11T18:24:39.838Z,7282.65186
2024-01-11T18:39:41.806Z,6495.17627
2024-01-11T18:54:43.908Z,9329.84863
2024-01-11T19:09:46.074Z,15113.06055
2024-01-11T19:24:48.126Z,14567.70117
2024-01-11T19:39:50.075Z,12803.37207
2024-01-11T19:54:52.292Z,8357.79004
2024-01-11T20:09:54.394Z,7267.07031
2024-01-11T20:24:56.480Z,7050.125
2024-01-11T20:39:58.596Z,5301.37744
2024-01-11T20:55:00.895Z,5161.14209
2024-01-11T21:10:02.963Z,5013.71533
2024-01-11T21:25:05.065Z,4948.99121
2024-01-11T21:40:07.097Z,5288.19287
2024-01-11T21:55:09.252Z,5168.3335
2024-01-11T22:10:11.342Z,4077.61377
2024-01-11T22:25:13.498Z,3196.64795
2024-01-11T22:40:15.500Z,3036.03638
2024-01-11T22:55:17.496Z,3063.604
2024-01-11T23:10:19.596Z,2320.47632
2024-01-11T23:25:21.647Z,2101.13379
2024-01-11T23:40:23.678Z,1416.73706
2024-01-11T23:55:25.912Z,759.90808
